createdAt,value
2018-07-11T00:00:45.664Z,34
2018-07-11T00:01:51.115Z,34
2018-07-11T00:02:56.289Z,34
2018-07-11T00:04:01.579Z,34
2018-07-11T00:05:06.173Z,34
2018-07-11T00:06:11.050Z,34
2018-07-11T00:07:16.163Z,34
2018-07-11T00:08:21.049Z,34
2018-07-11T00:09:26.934Z,34
2018-07-11T00:10:32.112Z,34
2018-07-11T00:11:37.273Z,34
2018-07-11T00:12:42.978Z,34
2018-07-11T00:13:48.450Z,34
2018-07-11T00:14:53.663Z,34
2018-07-11T00:15:58.870Z,34
2018-07-11T00:17:04.025Z,34
2018-07-11T00:18:08.628Z,34
2018-07-11T00:19:13.754Z,34
2018-07-11T00:20:19.209Z,34
2018-07-11T00:21:24.092Z,34
2018-07-11T00:22:30.141Z,34
2018-07-11T00:23:35.585Z,34
2018-07-11T00:24:41.340Z,34
2018-07-11T00:25:46.496Z,34
2018-07-11T00:26:51.376Z,34
2018-07-11T00:27:57.163Z,34
2018-07-11T00:29:02.043Z,34
2018-07-11T00:30:06.647Z,34
2018-07-11T00:31:12.073Z,34
2018-07-11T00:32:17.249Z,34
2018-07-11T00:33:22.689Z,34
2018-07-11T00:34:42.757Z,34
2018-07-11T00:35:48.192Z,34
2018-07-11T00:36:53.892Z,34
2018-07-11T00:37:58.765Z,34
2018-07-11T00:39:04.238Z,34
2018-07-11T00:40:09.658Z,34
2018-07-11T00:41:14.814Z,34
2018-07-11T00:42:19.681Z,34
2018-07-11T00:43:24.817Z,34
2018-07-11T00:44:30.254Z,34
2018-07-11T00:45:35.668Z,34
2018-07-11T00:46:40.840Z,34
2018-07-11T00:47:46.295Z,34
2018-07-11T00:48:51.714Z,34
2018-07-11T00:49:57.163Z,34
2018-07-11T00:51:02.055Z,34
2018-07-11T00:52:06.915Z,34
2018-07-11T00:53:11.824Z,34
2018-07-11T00:54:17.012Z,34
2018-07-11T00:55:22.988Z,34
2018-07-11T00:56:28.431Z,34
2018-07-11T00:57:33.709Z,34
2018-07-11T00:58:39.164Z,34
2018-07-11T00:59:43.751Z,34
2018-07-11T01:00:49.456Z,34
2018-07-11T01:01:54.635Z,34
2018-07-11T01:02:59.805Z,34
2018-07-11T01:04:04.649Z,34
2018-07-11T01:05:09.818Z,34
2018-07-11T01:06:14.707Z,34
2018-07-11T01:07:20.109Z,34
2018-07-11T01:08:25.268Z,34
2018-07-11T01:09:30.121Z,34
2018-07-11T01:10:35.585Z,34
2018-07-11T01:11:40.750Z,34
2018-07-11T01:12:46.597Z,34
2018-07-11T01:13:52.041Z,34
2018-07-11T01:14:57.213Z,34
2018-07-11T01:16:02.733Z,34
2018-07-11T01:17:07.628Z,34
2018-07-11T01:18:12.797Z,34
2018-07-11T01:19:18.482Z,34
2018-07-11T01:20:23.929Z,34
2018-07-11T01:21:29.746Z,34
2018-07-11T01:22:35.184Z,34
2018-07-11T01:23:40.646Z,34
2018-07-11T01:24:46.503Z,34
2018-07-11T01:25:51.947Z,34
2018-07-11T01:26:57.410Z,34
2018-07-11T01:28:02.820Z,34
2018-07-11T01:29:07.985Z,34
2018-07-11T01:30:13.419Z,34
2018-07-11T01:31:18.835Z,34
2018-07-11T01:32:24.300Z,34
2018-07-11T01:33:29.811Z,34
2018-07-11T01:34:35.259Z,34
2018-07-11T01:35:40.699Z,34
2018-07-11T01:36:46.554Z,34
2018-07-11T01:37:51.719Z,34
2018-07-11T01:38:57.171Z,34
2018-07-11T01:40:02.595Z,34
2018-07-11T01:41:07.193Z,34
2018-07-11T01:42:12.359Z,34
2018-07-11T01:43:18.061Z,34
2018-07-11T01:44:22.944Z,34
2018-07-11T01:45:28.519Z,34
2018-07-11T01:46:33.961Z,34
2018-07-11T01:47:39.118Z,34
2018-07-11T01:48:44.644Z,34
2018-07-11T01:49:49.531Z,34
2018-07-11T01:50:54.714Z,34
2018-07-11T01:52:00.539Z,34
2018-07-11T01:53:05.406Z,34
2018-07-11T01:54:10.294Z,34
2018-07-11T01:55:15.813Z,34
2018-07-11T01:56:20.997Z,34
2018-07-11T01:57:26.810Z,34
2018-07-11T01:58:31.995Z,34
2018-07-11T01:59:36.897Z,34
2018-07-11T02:00:42.311Z,34
2018-07-11T02:01:47.210Z,34
2018-07-11T02:02:52.360Z,34
2018-07-11T02:03:58.239Z,34
2018-07-11T02:05:03.114Z,34
2018-07-11T02:06:08.018Z,34
2018-07-11T02:07:13.155Z,34
2018-07-11T02:08:18.313Z,34
2018-07-11T02:09:23.760Z,34
2018-07-11T02:10:29.746Z,34
2018-07-11T02:11:34.928Z,34
2018-07-11T02:12:40.352Z,34
2018-07-11T02:13:45.810Z,34
2018-07-11T02:14:50.967Z,34
2018-07-11T02:15:56.717Z,33
2018-07-11T02:17:01.617Z,34
2018-07-11T02:18:06.778Z,33
2018-07-11T02:19:12.232Z,33
2018-07-11T02:20:17.404Z,33
2018-07-11T02:21:22.589Z,33
2018-07-11T02:22:28.433Z,33
2018-07-11T02:23:33.587Z,33
2018-07-11T02:24:39.736Z,33
2018-07-11T02:25:45.182Z,34
2018-07-11T02:26:50.633Z,33
2018-07-11T02:27:56.055Z,33
2018-07-11T02:29:01.510Z,34
2018-07-11T02:30:06.694Z,33
2018-07-11T02:31:11.554Z,33
2018-07-11T02:32:17.019Z,33
2018-07-11T02:33:22.469Z,33
2018-07-11T02:34:27.994Z,33
2018-07-11T02:35:33.171Z,33
2018-07-11T02:36:39.118Z,33
2018-07-11T02:37:44.285Z,33
2018-07-11T02:38:49.725Z,33
2018-07-11T02:39:55.430Z,33
2018-07-11T02:41:00.578Z,33
2018-07-11T02:42:05.479Z,33
2018-07-11T02:43:10.713Z,33
2018-07-11T02:44:15.610Z,33
2018-07-11T02:45:21.084Z,33
2018-07-11T02:46:26.537Z,33
2018-07-11T02:47:31.703Z,33
2018-07-11T02:48:37.600Z,33
2018-07-11T02:49:41.912Z,33
2018-07-11T02:50:47.357Z,33
2018-07-11T02:51:53.251Z,33
2018-07-11T02:52:58.706Z,33
2018-07-11T02:54:04.200Z,33
2018-07-11T02:55:09.620Z,33
2018-07-11T02:56:14.518Z,33
2018-07-11T02:57:19.386Z,33
2018-07-11T02:58:24.675Z,33
2018-07-11T02:59:30.119Z,33
2018-07-11T03:00:35.530Z,33
2018-07-11T03:01:40.703Z,33
2018-07-11T03:02:46.154Z,33
2018-07-11T03:03:51.842Z,33
2018-07-11T03:04:57.297Z,33
2018-07-11T03:06:02.468Z,33
2018-07-11T03:07:07.607Z,33
2018-07-11T03:08:13.057Z,33
2018-07-11T03:09:18.221Z,33
2018-07-11T03:10:24.028Z,33
2018-07-11T03:11:29.190Z,33
2018-07-11T03:12:34.713Z,33
2018-07-11T03:13:40.195Z,33
2018-07-11T03:14:45.644Z,33
2018-07-11T03:15:51.054Z,33
2018-07-11T03:16:56.215Z,33
2018-07-11T03:18:01.123Z,33
2018-07-11T03:19:06.527Z,33
2018-07-11T03:20:11.424Z,33
2018-07-11T03:21:16.580Z,33
2018-07-11T03:22:22.111Z,33
2018-07-11T03:23:27.537Z,33
2018-07-11T03:24:32.919Z,33
2018-07-11T03:25:37.785Z,33
2018-07-11T03:26:42.365Z,33
2018-07-11T03:27:48.138Z,33
2018-07-11T03:28:53.003Z,33
2018-07-11T03:29:57.860Z,33
2018-07-11T03:31:03.349Z,33
2018-07-11T03:32:08.210Z,33
2018-07-11T03:33:13.639Z,33
2018-07-11T03:34:19.338Z,33
2018-07-11T03:35:24.484Z,33
2018-07-11T03:36:29.991Z,33
2018-07-11T03:37:35.412Z,33
2018-07-11T03:38:40.566Z,33
2018-07-11T03:39:46.484Z,33
2018-07-11T03:40:51.626Z,33
2018-07-11T03:41:57.099Z,33
2018-07-11T03:43:02.208Z,33
2018-07-11T03:44:07.073Z,33
2018-07-11T03:45:12.494Z,33
2018-07-11T03:46:18.168Z,33
2018-07-11T03:47:23.594Z,33
2018-07-11T03:48:29.181Z,33
2018-07-11T03:49:34.071Z,33
2018-07-11T03:50:38.957Z,33
2018-07-11T03:51:44.078Z,33
2018-07-11T03:52:49.497Z,33
2018-07-11T03:53:55.049Z,33
2018-07-11T03:55:00.722Z,33
2018-07-11T03:56:05.612Z,33
2018-07-11T03:57:10.184Z,33
2018-07-11T03:58:15.731Z,33
2018-07-11T03:59:21.174Z,33
2018-07-11T04:00:26.672Z,33
2018-07-11T04:01:31.809Z,33
2018-07-11T04:02:36.696Z,33
2018-07-11T04:03:42.446Z,32
2018-07-11T04:04:47.888Z,32
2018-07-11T04:05:53.537Z,32
2018-07-11T04:06:59.216Z,32
2018-07-11T04:08:04.641Z,32
2018-07-11T04:09:08.984Z,31
2018-07-11T04:10:14.101Z,31
2018-07-11T04:11:19.524Z,31
2018-07-11T04:12:24.960Z,31
2018-07-11T04:13:30.404Z,31
2018-07-11T04:14:35.862Z,31
2018-07-11T04:15:41.348Z,31
2018-07-11T04:16:46.248Z,31
2018-07-11T04:17:51.394Z,31
2018-07-11T04:18:57.169Z,31
2018-07-11T04:20:02.341Z,30
2018-07-11T04:21:06.072Z,31
2018-07-11T04:22:11.050Z,31
2018-07-11T04:23:16.012Z,30
2018-07-11T04:24:21.453Z,31
2018-07-11T04:25:27.473Z,31
2018-07-11T04:26:32.893Z,31
2018-07-11T04:27:38.668Z,31
2018-07-11T04:28:43.329Z,31
2018-07-11T04:29:48.570Z,31
2018-07-11T04:30:53.958Z,31
2018-07-11T04:31:59.385Z,31
2018-07-11T04:33:04.231Z,31
2018-07-11T04:34:09.444Z,31
2018-07-11T04:35:14.615Z,31
2018-07-11T04:36:20.034Z,30
2018-07-11T04:37:25.284Z,31
2018-07-11T04:38:30.425Z,31
2018-07-11T04:39:35.541Z,31
2018-07-11T04:40:40.679Z,31
2018-07-11T04:41:45.526Z,31
2018-07-11T04:42:50.764Z,31
2018-07-11T04:43:56.390Z,31
2018-07-11T04:45:01.896Z,31
2018-07-11T04:46:06.493Z,31
2018-07-11T04:47:11.769Z,31
2018-07-11T04:48:16.876Z,31
2018-07-11T04:49:22.488Z,31
2018-07-11T04:50:27.880Z,31
2018-07-11T04:51:33.250Z,31
2018-07-11T04:52:38.875Z,31
2018-07-11T04:53:44.164Z,31
2018-07-11T04:54:49.831Z,31
2018-07-11T04:55:55.474Z,31
2018-07-11T04:57:01.282Z,31
2018-07-11T04:58:06.398Z,31
2018-07-11T04:59:11.568Z,31
2018-07-11T05:00:17.000Z,31
2018-07-11T05:01:22.392Z,31
2018-07-11T05:02:27.814Z,31
2018-07-11T05:03:33.484Z,31
2018-07-11T05:04:38.348Z,31
2018-07-11T05:05:43.870Z,31
2018-07-11T05:06:48.981Z,31
2018-07-11T05:07:53.838Z,31
2018-07-11T05:08:58.981Z,31
2018-07-11T05:10:04.379Z,31
2018-07-11T05:11:08.993Z,31
2018-07-11T05:12:14.855Z,31
2018-07-11T05:13:20.524Z,31
2018-07-11T05:14:25.401Z,31
2018-07-11T05:15:30.631Z,31
2018-07-11T05:16:35.790Z,31
2018-07-11T05:17:41.070Z,31
2018-07-11T05:26:47.714Z,32
2018-07-11T05:27:53.704Z,32
2018-07-11T05:28:58.870Z,33
2018-07-11T05:30:04.208Z,33
2018-07-11T05:31:09.427Z,34
2018-07-11T05:32:14.283Z,34
2018-07-11T05:33:18.859Z,35
2018-07-11T05:34:24.244Z,35
2018-07-11T05:35:28.826Z,35
2018-07-11T05:36:34.322Z,35
2018-07-11T05:37:39.261Z,35
2018-07-11T05:38:44.318Z,35
2018-07-11T05:39:49.916Z,35
2018-07-11T05:40:55.340Z,35
2018-07-11T05:42:00.488Z,35
2018-07-11T05:43:05.898Z,35
2018-07-11T05:44:11.097Z,35
2018-07-11T05:45:16.313Z,35
2018-07-11T05:46:22.104Z,35
2018-07-11T05:47:27.249Z,35
2018-07-11T05:48:32.692Z,35
2018-07-11T05:49:38.186Z,35
2018-07-11T05:50:43.083Z,35
2018-07-11T05:51:47.939Z,35
2018-07-11T05:52:53.550Z,35
2018-07-11T05:53:59.134Z,34
2018-07-11T05:55:04.578Z,34
2018-07-11T05:56:09.437Z,34
2018-07-11T05:57:15.146Z,34
2018-07-11T05:58:20.265Z,34
2018-07-11T05:59:25.751Z,34
2018-07-11T06:00:31.775Z,34
2018-07-11T06:01:37.253Z,34
2018-07-11T06:02:42.620Z,34
2018-07-11T06:03:48.016Z,34
2018-07-11T06:04:53.179Z,34
2018-07-11T06:05:58.601Z,34
2018-07-11T06:07:04.183Z,34
2018-07-11T06:08:09.329Z,34
2018-07-11T06:09:14.187Z,34
2018-07-11T06:10:19.592Z,34
2018-07-11T06:11:24.790Z,34
2018-07-11T06:12:30.487Z,34
2018-07-11T06:13:35.988Z,34
2018-07-11T06:14:41.103Z,35
2018-07-11T06:15:46.632Z,35
2018-07-11T06:16:51.909Z,35
2018-07-11T06:17:57.040Z,35
2018-07-11T06:19:02.179Z,35
2018-07-11T06:20:06.486Z,35
2018-07-11T06:21:11.774Z,35
2018-07-11T06:22:17.196Z,35
2018-07-11T06:23:22.053Z,35
2018-07-11T06:24:27.790Z,35
2018-07-11T06:25:32.361Z,35
2018-07-11T06:26:37.541Z,35
2018-07-11T06:27:42.866Z,35
2018-07-11T06:28:47.735Z,35
2018-07-11T06:29:52.989Z,35
2018-07-11T06:30:58.139Z,35
2018-07-11T06:32:03.002Z,35
2018-07-11T06:33:08.444Z,35
2018-07-11T06:34:12.985Z,35
2018-07-11T06:35:17.570Z,35
2018-07-11T06:36:22.777Z,35
2018-07-11T06:37:28.404Z,35
2018-07-11T06:38:33.608Z,35
2018-07-11T06:39:39.501Z,35
2018-07-11T06:40:44.644Z,35
2018-07-11T06:41:50.073Z,35
2018-07-11T06:42:55.473Z,35
2018-07-11T06:44:00.696Z,35
2018-07-11T06:45:05.806Z,35
2018-07-11T06:46:11.696Z,35
2018-07-11T06:47:17.115Z,35
2018-07-11T06:48:22.029Z,35
2018-07-11T06:49:27.926Z,35
2018-07-11T06:50:33.083Z,35
2018-07-11T06:51:38.292Z,35
2018-07-11T06:52:43.202Z,35
2018-07-11T06:53:48.713Z,35
2018-07-11T07:03:34.219Z,35
2018-07-11T07:04:39.443Z,35
2018-07-11T07:05:44.941Z,35
2018-07-11T07:06:50.637Z,35
2018-07-11T07:07:55.992Z,35
2018-07-11T07:09:00.868Z,35
2018-07-11T07:10:06.227Z,35
2018-07-11T07:11:11.655Z,35
2018-07-11T07:12:17.077Z,35
2018-07-11T07:13:22.178Z,35
2018-07-11T07:14:27.322Z,35
2018-07-11T07:15:33.042Z,35
2018-07-11T07:16:38.818Z,35
2018-07-11T07:17:44.288Z,35
2018-07-11T07:18:50.203Z,35
2018-07-11T07:19:55.653Z,35
2018-07-11T07:21:01.115Z,35
2018-07-11T07:22:06.496Z,35
2018-07-11T07:23:11.122Z,35
2018-07-11T07:24:16.034Z,35
2018-07-11T07:25:22.069Z,35
2018-07-11T07:26:27.569Z,35
2018-07-11T07:27:33.054Z,35
2018-07-11T07:28:38.455Z,35
2018-07-11T07:29:43.409Z,35
2018-07-11T07:30:49.117Z,35
2018-07-11T07:31:54.746Z,35
2018-07-11T07:33:00.168Z,35
2018-07-11T07:34:04.833Z,35
2018-07-11T07:35:10.024Z,35
2018-07-11T07:36:15.168Z,35
2018-07-11T07:37:20.872Z,35
2018-07-11T07:38:26.527Z,35
2018-07-11T07:39:31.976Z,35
2018-07-11T07:40:37.040Z,35
2018-07-11T07:41:41.908Z,35
2018-07-11T07:42:47.019Z,35
2018-07-11T07:43:53.391Z,35
2018-07-11T07:44:58.820Z,35
2018-07-11T07:46:04.560Z,35
2018-07-11T07:47:09.828Z,35
2018-07-11T07:48:15.907Z,35
2018-07-11T07:49:21.055Z,35
2018-07-11T07:50:26.203Z,35
2018-07-11T07:51:31.890Z,35
2018-07-11T07:52:36.205Z,35
2018-07-11T07:53:41.635Z,35
2018-07-11T07:54:47.050Z,35
2018-07-11T07:55:52.485Z,35
2018-07-11T07:56:57.630Z,35
2018-07-11T07:58:03.402Z,35
2018-07-11T07:59:08.587Z,35
2018-07-11T08:00:13.489Z,35
2018-07-11T08:01:19.035Z,35
2018-07-11T08:02:24.172Z,35
2018-07-11T08:03:29.392Z,35
2018-07-11T08:04:34.890Z,35
2018-07-11T08:05:39.887Z,35
2018-07-11T08:06:45.568Z,35
2018-07-11T08:07:51.037Z,35
2018-07-11T08:08:55.971Z,35
2018-07-11T08:10:01.797Z,35
2018-07-11T08:11:06.663Z,35
2018-07-11T08:12:11.884Z,35
2018-07-11T08:13:16.816Z,35
2018-07-11T08:14:22.205Z,35
2018-07-11T08:15:27.617Z,35
2018-07-11T08:16:32.755Z,35
2018-07-11T08:17:37.947Z,35
2018-07-11T08:18:42.630Z,35
2018-07-11T08:19:47.852Z,35
2018-07-11T08:20:52.987Z,35
2018-07-11T08:21:58.296Z,36
2018-07-11T08:23:02.731Z,36
2018-07-11T08:24:07.612Z,35
2018-07-11T08:25:13.020Z,36
2018-07-11T08:26:18.183Z,36
2018-07-11T08:27:23.365Z,36
2018-07-11T08:28:30.413Z,36
2018-07-11T08:29:36.211Z,36
2018-07-11T08:30:41.985Z,36
2018-07-11T08:31:47.503Z,36
2018-07-11T08:32:52.858Z,36
2018-07-11T08:33:58.320Z,36
2018-07-11T08:35:03.469Z,36
2018-07-11T08:36:08.509Z,36
2018-07-11T08:37:14.004Z,36
2018-07-11T08:38:19.158Z,36
2018-07-11T08:40:45.035Z,36
2018-07-11T08:41:50.200Z,36
2018-07-11T08:42:56.291Z,36
2018-07-11T08:44:01.265Z,36
2018-07-11T08:45:06.153Z,36
2018-07-11T08:46:11.562Z,36
2018-07-11T08:47:17.000Z,36
2018-07-11T08:48:22.593Z,36
2018-07-11T08:49:28.594Z,36
2018-07-11T08:50:33.466Z,36
2018-07-11T08:51:39.238Z,36
2018-07-11T08:52:44.186Z,36
2018-07-11T08:53:49.180Z,36
2018-07-11T08:54:54.313Z,36
2018-07-11T08:56:00.886Z,36
2018-07-11T08:57:05.824Z,36
2018-07-11T08:58:11.424Z,36
2018-07-11T08:59:16.961Z,36
2018-07-11T09:00:22.142Z,36
2018-07-11T09:01:27.709Z,36
2018-07-11T09:02:32.861Z,36
2018-07-11T09:03:38.039Z,36
2018-07-11T09:04:43.490Z,36
2018-07-11T09:05:48.641Z,36
2018-07-11T09:06:53.873Z,36
2018-07-11T09:07:58.730Z,36
2018-07-11T09:09:03.875Z,36
2018-07-11T09:10:09.012Z,36
2018-07-11T09:11:13.904Z,36
2018-07-11T09:12:19.065Z,36
2018-07-11T09:13:24.276Z,36
2018-07-11T09:14:29.173Z,36
2018-07-11T09:15:34.944Z,36
2018-07-11T09:16:39.616Z,36
2018-07-11T09:17:44.471Z,36
2018-07-11T09:18:50.494Z,36
2018-07-11T09:19:55.390Z,36
2018-07-11T09:21:01.052Z,36
2018-07-11T09:22:06.472Z,36
2018-07-11T09:23:11.983Z,36
2018-07-11T09:24:17.262Z,36
2018-07-11T09:25:23.337Z,36
2018-07-11T09:26:28.774Z,36
2018-07-11T09:27:34.206Z,36
2018-07-11T09:28:39.718Z,36
2018-07-11T09:29:45.139Z,36
2018-07-11T09:30:50.736Z,36
2018-07-11T09:31:55.908Z,36
2018-07-11T09:33:01.052Z,36
2018-07-11T09:34:06.278Z,36
2018-07-11T09:35:10.855Z,36
2018-07-11T09:36:16.046Z,36
2018-07-11T09:37:21.448Z,36
2018-07-11T09:38:26.582Z,36
2018-07-11T09:39:32.551Z,36
2018-07-11T09:40:37.851Z,36
2018-07-11T09:41:42.436Z,36
2018-07-11T09:42:47.659Z,36
2018-07-11T09:43:52.873Z,36
2018-07-11T09:44:57.988Z,36
2018-07-11T09:46:03.279Z,36
2018-07-11T09:47:08.250Z,36
2018-07-11T09:48:13.143Z,36
2018-07-11T09:49:18.825Z,36
2018-07-11T09:50:24.277Z,36
2018-07-11T09:51:29.653Z,36
2018-07-11T09:52:35.155Z,36
2018-07-11T09:53:39.805Z,36
2018-07-11T09:54:46.043Z,36
2018-07-11T09:55:51.300Z,36
2018-07-11T09:56:56.748Z,36
2018-07-11T09:58:01.669Z,36
2018-07-11T09:59:06.408Z,36
2018-07-11T10:00:11.554Z,36
2018-07-11T10:01:17.463Z,36
2018-07-11T10:02:22.936Z,36
2018-07-11T10:03:28.514Z,36
2018-07-11T10:04:33.730Z,36
2018-07-11T10:05:38.930Z,36
2018-07-11T10:06:44.654Z,36
2018-07-11T10:07:50.210Z,36
2018-07-11T10:08:55.373Z,36
2018-07-11T10:10:01.075Z,36
2018-07-11T10:11:05.672Z,36
2018-07-11T10:12:10.298Z,36
2018-07-11T10:13:15.173Z,36
2018-07-11T10:14:20.668Z,36
2018-07-11T10:15:25.676Z,36
2018-07-11T10:16:31.115Z,36
2018-07-11T10:17:36.340Z,36
2018-07-11T10:18:42.036Z,36
2018-07-11T10:19:47.205Z,36
2018-07-11T10:20:52.431Z,36
2018-07-11T10:21:57.487Z,36
2018-07-11T10:23:02.402Z,36
2018-07-11T10:24:07.687Z,37
2018-07-11T10:25:12.839Z,37
2018-07-11T10:26:18.005Z,36
2018-07-11T10:27:23.187Z,36
2018-07-11T10:28:28.488Z,37
2018-07-11T10:29:33.786Z,37
2018-07-11T10:30:39.229Z,37
2018-07-11T10:31:44.412Z,37
2018-07-11T10:32:49.364Z,37
2018-07-11T10:33:55.098Z,37
2018-07-11T10:35:00.031Z,37
2018-07-11T10:36:05.239Z,37
2018-07-11T10:37:09.911Z,37
2018-07-11T10:38:15.185Z,37
2018-07-11T10:39:20.420Z,37
2018-07-11T10:40:25.991Z,37
2018-07-11T10:41:30.916Z,37
2018-07-11T10:42:36.085Z,37
2018-07-11T10:43:41.233Z,37
2018-07-11T10:44:46.664Z,37
2018-07-11T10:45:51.821Z,37
2018-07-11T10:46:57.016Z,37
2018-07-11T10:48:02.175Z,37
2018-07-11T10:49:07.061Z,37
2018-07-11T10:50:12.208Z,37
2018-07-11T10:51:17.112Z,37
2018-07-11T10:52:22.612Z,37
2018-07-11T10:53:27.947Z,37
2018-07-11T10:54:33.739Z,37
2018-07-11T10:55:38.410Z,37
2018-07-11T10:56:43.888Z,37
2018-07-11T10:57:49.925Z,37
2018-07-11T10:58:55.452Z,37
2018-07-11T11:00:00.620Z,37
2018-07-11T11:01:06.094Z,37
2018-07-11T11:02:11.671Z,37
2018-07-11T11:03:16.523Z,37
2018-07-11T11:04:21.109Z,37
2018-07-11T11:05:26.583Z,37
2018-07-11T11:06:32.577Z,37
2018-07-11T11:07:38.016Z,37
2018-07-11T11:08:42.957Z,37
2018-07-11T11:09:47.824Z,37
2018-07-11T11:10:52.979Z,37
2018-07-11T11:11:58.204Z,37
2018-07-11T11:13:03.686Z,37
2018-07-11T11:14:08.861Z,37
2018-07-11T11:15:14.023Z,36
2018-07-11T11:16:19.438Z,36
2018-07-11T11:17:24.629Z,36
2018-07-11T11:18:30.316Z,36
2018-07-11T11:19:35.857Z,36
2018-07-11T11:20:41.357Z,36
2018-07-11T11:21:46.755Z,36
2018-07-11T11:22:52.359Z,36
2018-07-11T11:23:57.256Z,36
2018-07-11T11:25:02.634Z,37
2018-07-11T11:26:08.074Z,36
2018-07-11T11:27:13.250Z,37
2018-07-11T11:28:18.781Z,36
2018-07-11T11:29:24.228Z,36
2018-07-11T11:30:29.134Z,36
2018-07-11T11:31:34.339Z,36
2018-07-11T11:32:39.503Z,36
2018-07-11T11:33:44.840Z,37
2018-07-11T11:34:49.764Z,36
2018-07-11T11:35:55.294Z,36
2018-07-11T11:37:00.985Z,36
2018-07-11T11:38:06.136Z,36
2018-07-11T11:39:11.293Z,36
2018-07-11T11:40:16.851Z,36
2018-07-11T11:41:22.266Z,36
2018-07-11T11:42:28.408Z,36
2018-07-11T11:43:36.716Z,36
2018-07-11T11:44:41.615Z,36
2018-07-11T11:45:47.299Z,36
2018-07-11T11:46:52.557Z,36
2018-07-11T11:47:59.332Z,36
2018-07-11T11:49:04.802Z,36
2018-07-11T11:50:10.265Z,36
2018-07-11T11:51:15.712Z,36
2018-07-11T11:52:21.461Z,36
2018-07-11T11:53:27.070Z,36
2018-07-11T11:54:32.523Z,36
2018-07-11T11:55:37.710Z,36
2018-07-11T11:56:43.100Z,36
2018-07-11T11:57:48.313Z,36
2018-07-11T11:58:53.264Z,36
2018-07-11T11:59:58.162Z,36
2018-07-11T12:01:03.437Z,36
2018-07-11T12:02:08.876Z,36
2018-07-11T12:03:13.763Z,36
2018-07-11T12:04:19.176Z,36
2018-07-11T12:05:24.537Z,36
2018-07-11T12:06:29.916Z,36
2018-07-11T12:07:34.505Z,36
2018-07-11T12:08:39.724Z,36
2018-07-11T12:09:45.531Z,36
2018-07-11T12:10:50.691Z,36
2018-07-11T12:11:55.842Z,36
2018-07-11T12:13:01.733Z,36
2018-07-11T12:14:06.343Z,36
2018-07-11T12:15:11.786Z,36
2018-07-11T12:16:17.225Z,36
2018-07-11T12:17:22.110Z,36
2018-07-11T12:18:27.276Z,36
2018-07-11T12:19:32.420Z,36
2018-07-11T12:20:37.738Z,36
2018-07-11T12:21:43.156Z,36
2018-07-11T12:22:48.034Z,36
2018-07-11T12:23:53.769Z,36
2018-07-11T12:24:59.855Z,36
2018-07-11T12:26:05.088Z,36
2018-07-11T12:27:10.256Z,36
2018-07-11T12:28:15.917Z,36
2018-07-11T12:29:21.267Z,36
2018-07-11T12:30:26.984Z,36
2018-07-11T12:31:32.575Z,36
2018-07-11T12:32:38.061Z,36
2018-07-11T12:33:43.536Z,36
2018-07-11T12:34:48.514Z,36
2018-07-11T12:35:53.701Z,36
2018-07-11T12:36:59.316Z,36
2018-07-11T12:38:04.218Z,36
2018-07-11T12:39:08.634Z,36
2018-07-11T12:40:14.206Z,36
2018-07-11T12:41:19.982Z,36
2018-07-11T12:42:26.276Z,36
2018-07-11T12:43:32.055Z,36
2018-07-11T12:44:37.801Z,36
2018-07-11T12:45:42.957Z,36
2018-07-11T12:46:47.836Z,36
2018-07-11T12:47:53.088Z,36
2018-07-11T12:48:59.128Z,36
2018-07-11T12:50:04.578Z,36
2018-07-11T12:51:09.737Z,36
2018-07-11T12:52:15.013Z,36
2018-07-11T12:53:19.899Z,36
2018-07-11T12:54:40.234Z,36
2018-07-11T12:55:44.878Z,36
2018-07-11T12:56:50.411Z,36
2018-07-11T12:57:55.537Z,36
2018-07-11T12:59:00.702Z,36
2018-07-11T13:00:06.239Z,36
2018-07-11T13:01:11.131Z,36
2018-07-11T13:02:16.774Z,36
2018-07-11T13:03:22.503Z,36
2018-07-11T13:04:28.414Z,36
2018-07-11T13:05:33.456Z,36
2018-07-11T13:06:39.092Z,36
2018-07-11T13:07:43.987Z,36
2018-07-11T13:08:48.859Z,36
2018-07-11T13:09:53.830Z,36
2018-07-11T13:10:59.485Z,36
2018-07-11T13:12:04.664Z,36
2018-07-11T13:13:09.835Z,36
2018-07-11T13:14:15.179Z,36
2018-07-11T13:15:20.828Z,36
2018-07-11T13:16:26.861Z,36
2018-07-11T13:17:31.518Z,36
2018-07-11T13:18:37.109Z,36
2018-07-11T13:19:42.551Z,36
2018-07-11T13:20:47.745Z,36
2018-07-11T13:21:53.471Z,36
2018-07-11T13:22:58.619Z,36
2018-07-11T13:24:03.830Z,36
2018-07-11T13:25:09.592Z,36
2018-07-11T13:26:15.062Z,36
2018-07-11T13:27:20.573Z,36
2018-07-11T13:28:26.563Z,36
2018-07-11T13:29:31.220Z,36
2018-07-11T13:30:36.888Z,36
2018-07-11T13:31:42.157Z,36
2018-07-11T13:32:47.383Z,36
2018-07-11T13:33:52.532Z,36
2018-07-11T13:34:57.143Z,37
2018-07-11T13:36:01.454Z,36
2018-07-11T13:37:06.107Z,36
2018-07-11T13:38:10.149Z,36
2018-07-11T13:39:15.467Z,36
2018-07-11T13:40:21.082Z,36
2018-07-11T13:41:26.232Z,36
2018-07-11T13:42:31.988Z,36
2018-07-11T13:43:37.474Z,36
2018-07-11T13:44:42.937Z,36
2018-07-11T13:45:48.290Z,36
2018-07-11T13:46:53.168Z,37
2018-07-11T13:47:58.806Z,37
2018-07-11T13:49:04.591Z,37
2018-07-11T13:50:09.516Z,37
2018-07-11T13:51:14.700Z,36
2018-07-11T13:52:20.106Z,36
2018-07-11T13:53:25.628Z,37
2018-07-11T13:54:30.831Z,37
2018-07-11T13:55:36.010Z,37
2018-07-11T13:56:40.532Z,37
2018-07-11T13:57:45.659Z,37
2018-07-11T13:58:50.821Z,37
2018-07-11T13:59:56.275Z,36
2018-07-11T14:01:01.845Z,37
2018-07-11T14:02:06.119Z,37
2018-07-11T14:03:11.081Z,37
2018-07-11T14:04:16.876Z,37
2018-07-11T14:05:22.331Z,37
2018-07-11T14:06:27.795Z,37
2018-07-11T14:07:33.485Z,37
2018-07-11T14:08:39.585Z,37
2018-07-11T14:09:44.527Z,37
2018-07-11T14:10:49.719Z,37
2018-07-11T14:11:55.372Z,37
2018-07-11T14:13:00.816Z,37
2018-07-11T14:14:05.809Z,37
2018-07-11T14:15:11.813Z,36
2018-07-11T14:16:17.211Z,37
2018-07-11T14:17:22.677Z,36
2018-07-11T14:18:28.366Z,36
2018-07-11T14:19:33.242Z,36
2018-07-11T14:20:38.411Z,36
2018-07-11T14:21:43.541Z,36
2018-07-11T14:22:48.921Z,36
2018-07-11T14:23:54.421Z,36
2018-07-11T14:25:00.216Z,36
2018-07-11T14:26:05.035Z,36
2018-07-11T14:27:10.511Z,36
2018-07-11T14:28:15.747Z,36
2018-07-11T14:29:20.665Z,36
2018-07-11T14:30:40.780Z,36
2018-07-11T14:31:46.213Z,36
2018-07-11T14:32:51.410Z,36
2018-07-11T14:33:56.890Z,36
2018-07-11T14:35:01.843Z,36
2018-07-11T14:36:05.886Z,36
2018-07-11T14:37:11.353Z,36
2018-07-11T14:38:16.544Z,36
2018-07-11T14:39:21.432Z,36
2018-07-11T14:40:26.954Z,36
2018-07-11T14:41:31.882Z,36
2018-07-11T14:42:37.016Z,37
2018-07-11T14:43:41.885Z,36
2018-07-11T14:44:47.103Z,36
2018-07-11T14:45:52.900Z,36
2018-07-11T14:46:56.961Z,36
2018-07-11T14:48:01.894Z,36
2018-07-11T14:49:07.509Z,36
2018-07-11T14:50:12.741Z,36
2018-07-11T14:51:17.992Z,36
2018-07-11T14:52:23.823Z,36
2018-07-11T14:53:29.428Z,36
2018-07-11T14:54:35.265Z,36
2018-07-11T14:55:39.935Z,36
2018-07-11T14:56:45.285Z,36
2018-07-11T14:57:51.052Z,36
2018-07-11T14:58:56.494Z,36
2018-07-11T15:00:01.390Z,36
2018-07-11T15:01:06.420Z,36
2018-07-11T15:02:11.932Z,36
2018-07-11T15:03:16.850Z,36
2018-07-11T15:04:22.344Z,37
2018-07-11T15:05:27.571Z,36
2018-07-11T15:06:33.321Z,37
2018-07-11T15:07:37.903Z,37
2018-07-11T15:08:43.725Z,37
2018-07-11T15:09:49.972Z,36
2018-07-11T15:10:55.423Z,37
2018-07-11T15:12:00.597Z,37
2018-07-11T15:13:05.755Z,36
2018-07-11T15:14:11.013Z,36
2018-07-11T15:15:16.798Z,36
2018-07-11T15:16:22.315Z,37
2018-07-11T15:17:27.998Z,36
2018-07-11T15:18:33.688Z,37
2018-07-11T15:19:38.852Z,37
2018-07-11T15:20:43.163Z,37
2018-07-11T15:21:48.739Z,37
2018-07-11T15:22:54.498Z,37
2018-07-11T15:24:00.440Z,37
2018-07-11T15:25:06.257Z,37
2018-07-11T15:26:11.745Z,37
2018-07-11T15:27:17.182Z,37
2018-07-11T15:28:22.638Z,37
2018-07-11T15:29:28.276Z,37
2018-07-11T15:30:33.930Z,37
2018-07-11T15:31:39.079Z,37
2018-07-11T15:32:44.267Z,37
2018-07-11T15:33:49.899Z,37
2018-07-11T15:34:55.057Z,37
2018-07-11T15:36:00.044Z,37
2018-07-11T15:37:04.901Z,37
2018-07-11T15:38:09.547Z,37
2018-07-11T15:39:14.427Z,37
2018-07-11T15:40:19.935Z,37
2018-07-11T15:41:25.090Z,37
2018-07-11T15:42:30.887Z,37
2018-07-11T15:43:36.049Z,37
2018-07-11T15:44:40.904Z,37
2018-07-11T15:45:46.384Z,37
2018-07-11T15:46:51.905Z,37
2018-07-11T15:47:56.769Z,37
2018-07-11T15:49:02.298Z,37
2018-07-11T15:50:07.449Z,37